createdAt,value
2022-11-19T00:13:41.554Z,100.00
2022-11-19T00:16:12.432Z,100.00
2022-11-19T00:39:07.489Z,100.00
2022-11-19T00:45:08.946Z,100.00
2022-11-19T00:47:35.357Z,100.00
2022-11-19T01:13:44.989Z,100.00
2022-11-19T01:17:02.750Z,100.00
2022-11-19T01:19:30.645Z,100.00
2022-11-19T03:11:59.777Z,100.00
2022-11-19T03:18:07.837Z,100.00
2022-11-19T03:21:45.128Z,100.00
2022-11-19T03:24:14.631Z,100.00
2022-11-19T03:33:39.440Z,100.00
2022-11-19T03:40:21.664Z,100.00
2022-11-19T04:02:28.894Z,100.00
2022-11-19T04:04:23.173Z,100.00
2022-11-19T04:06:50.145Z,100.00
2022-11-19T04:09:17.611Z,100.00
2022-11-19T04:14:10.728Z,100.00
2022-11-19T04:16:37.317Z,100.00
2022-11-19T04:19:03.736Z,100.00
2022-11-19T04:21:30.570Z,100.00
2022-11-19T04:23:57.216Z,100.00
2022-11-19T04:26:23.840Z,100.00
2022-11-19T04:28:51.046Z,100.00
2022-11-19T04:31:18.178Z,100.00
2022-11-19T04:37:12.607Z,100.00
2022-11-19T04:39:38.996Z,100.00
2022-11-19T04:42:05.418Z,100.00
2022-11-19T04:55:02.788Z,100.00
2022-11-19T05:00:58.061Z,100.00
2022-11-19T05:03:24.668Z,100.00
2022-11-19T05:06:01.488Z,100.00
2022-11-19T05:08:28.963Z,100.00
2022-11-19T05:11:25.270Z,100.00
2022-11-19T05:20:07.091Z,100.00
2022-11-19T05:22:43.641Z,100.00
2022-11-19T05:25:12.326Z,100.00
2022-11-19T05:27:38.922Z,100.00
2022-11-19T05:30:05.723Z,100.00
2022-11-19T05:32:32.058Z,100.00
2022-11-19T05:53:16.406Z,100.00
2022-11-19T05:59:40.940Z,100.00
2022-11-19T06:02:13.903Z,100.00
2022-11-19T06:04:40.278Z,100.00
2022-11-19T06:07:19.274Z,100.00
2022-11-19T06:09:45.770Z,100.00
2022-11-19T06:12:29.994Z,100.00
2022-11-19T06:14:59.440Z,100.00
2022-11-19T06:21:39.008Z,100.00
2022-11-19T06:27:33.673Z,100.00
2022-11-19T06:30:00.060Z,100.00
2022-11-19T06:32:26.564Z,100.00
2022-11-19T06:34:52.937Z,100.00
2022-11-19T06:37:19.334Z,100.00
2022-11-19T06:39:45.730Z,100.00
2022-11-19T06:42:30.753Z,100.00
2022-11-19T06:44:57.125Z,100.00
2022-11-19T06:47:23.481Z,100.00
2022-11-19T06:49:49.901Z,100.00
2022-11-19T06:52:16.257Z,100.00
2022-11-19T06:54:43.409Z,100.00
2022-11-19T06:57:10.147Z,100.00
2022-11-19T06:59:38.863Z,100.00
2022-11-19T07:02:05.663Z,100.00
2022-11-19T07:04:32.152Z,100.00
2022-11-19T07:06:58.631Z,100.00
2022-11-19T07:09:25.152Z,100.00
2022-11-19T07:11:51.527Z,100.00
2022-11-19T07:14:17.891Z,100.00
2022-11-19T07:16:44.306Z,100.00
2022-11-19T07:19:10.675Z,100.00
2022-11-19T07:21:37.097Z,100.00
2022-11-19T07:24:05.183Z,100.00
2022-11-19T07:26:33.074Z,100.00
2022-11-19T07:29:04.683Z,100.00
2022-11-19T07:31:31.666Z,100.00
2022-11-19T07:33:58.068Z,100.00
2022-11-19T07:36:24.736Z,100.00
2022-11-19T07:38:52.299Z,100.00
2022-11-19T07:41:37.932Z,100.00
2022-11-19T07:44:04.884Z,100.00
2022-11-19T07:46:31.289Z,100.00
2022-11-19T07:48:58.130Z,100.00
2022-11-19T07:51:24.729Z,100.00
2022-11-19T07:53:51.546Z,100.00
2022-11-19T07:56:18.351Z,100.00
2022-11-19T07:58:44.813Z,100.00
2022-11-19T08:01:18.420Z,100.00
2022-11-19T08:03:53.391Z,100.00
2022-11-19T08:06:22.941Z,100.00
2022-11-19T08:08:49.347Z,100.00
2022-11-19T08:11:16.478Z,100.00
2022-11-19T08:13:43.015Z,100.00
2022-11-19T08:16:13.533Z,100.00
2022-11-19T08:18:39.910Z,100.00
2022-11-19T08:21:07.779Z,100.00
2022-11-19T08:23:34.205Z,100.00
2022-11-19T08:26:00.644Z,100.00
2022-11-19T08:28:27.533Z,100.00
2022-11-19T08:30:53.922Z,100.00
2022-11-19T08:33:20.594Z,100.00
2022-11-19T08:37:35.959Z,100.00
2022-11-19T08:47:11.622Z,100.00
2022-11-19T08:49:37.987Z,100.00
2022-11-19T08:52:04.402Z,100.00
2022-11-19T08:57:53.711Z,100.00
2022-11-19T09:10:43.428Z,100.00
2022-11-19T09:23:33.883Z,100.00
2022-11-19T09:26:04.941Z,100.00
2022-11-19T09:35:45.299Z,100.00
2022-11-19T10:02:19.264Z,100.00
2022-11-19T10:08:50.584Z,100.00
2022-11-19T10:25:33.873Z,100.00
2022-11-19T10:38:36.634Z,100.00
2022-11-19T10:55:17.693Z,100.00
2022-11-19T11:01:35.481Z,100.00
2022-11-19T11:04:28.414Z,100.00
2022-11-19T11:07:35.086Z,100.00
2022-11-19T11:10:01.515Z,100.00
2022-11-19T11:13:22.126Z,100.00
2022-11-19T11:19:36.002Z,100.00
2022-11-19T11:22:39.767Z,100.00
2022-11-19T11:25:35.405Z,100.00
2022-11-19T11:28:06.952Z,100.00
2022-11-19T11:30:33.800Z,100.00
2022-11-19T11:33:24.708Z,100.00
2022-11-19T11:35:52.772Z,100.00
2022-11-19T11:38:29.006Z,100.00
2022-11-19T11:41:31.522Z,94.71
2022-11-19T11:44:01.444Z,86.50
2022-11-19T11:46:40.233Z,66.94
2022-11-19T11:49:14.448Z,64.35
2022-11-19T11:51:41.063Z,63.10
2022-11-19T11:54:18.651Z,57.74
2022-11-19T11:56:46.136Z,56.17
2022-11-19T11:59:27.021Z,50.54
2022-11-19T12:01:54.747Z,50.75
2022-11-19T12:04:21.474Z,58.42
2022-11-19T12:06:52.865Z,64.14
2022-11-19T12:09:27.816Z,67.51
2022-11-19T12:12:13.116Z,72.14
2022-11-19T12:16:28.003Z,83.13
2022-11-19T12:29:53.164Z,73.21
2022-11-19T12:32:45.255Z,72.16
2022-11-19T12:35:30.125Z,72.10
2022-11-19T12:43:54.799Z,72.01
2022-11-19T12:50:42.283Z,89.63
2022-11-19T12:53:23.753Z,73.08
2022-11-19T12:56:30.392Z,74.55
2022-11-19T12:58:59.853Z,76.13
2022-11-19T13:22:51.314Z,100.00
2022-11-19T13:38:48.252Z,83.33
2022-11-19T13:41:25.347Z,68.54
2022-11-19T13:44:14.572Z,95.28
2022-11-19T13:46:46.198Z,67.88
2022-11-19T13:52:10.523Z,69.44
2022-11-19T13:54:41.049Z,72.59
2022-11-19T13:57:09.748Z,74.96
2022-11-19T13:59:47.446Z,79.63
2022-11-19T14:02:32.301Z,81.34
2022-11-19T14:05:20.185Z,77.57
2022-11-19T14:08:11.494Z,77.01
2022-11-19T14:10:44.328Z,76.21
2022-11-19T14:13:51.628Z,75.53
2022-11-19T14:16:51.975Z,75.22
2022-11-19T14:19:37.336Z,75.12
2022-11-19T14:23:13.819Z,74.64
2022-11-19T14:26:01.573Z,74.81
2022-11-19T14:28:53.991Z,73.99
2022-11-19T14:31:20.788Z,73.70
2022-11-19T14:33:47.203Z,73.44
2022-11-19T14:36:28.364Z,73.20
2022-11-19T14:39:01.438Z,73.07
2022-11-19T14:41:35.186Z,73.03
2022-11-19T14:44:13.029Z,73.14
2022-11-19T14:46:48.308Z,73.31
2022-11-19T14:49:33.523Z,73.29
2022-11-19T14:52:00.659Z,74.01
2022-11-19T14:54:43.031Z,73.27
2022-11-19T15:00:22.771Z,60.42
2022-11-19T15:02:53.808Z,71.83
2022-11-19T15:05:33.166Z,87.12
2022-11-19T15:08:17.994Z,100.00
2022-11-19T15:10:49.138Z,100.00
2022-11-19T15:13:40.674Z,100.00
2022-11-19T15:16:22.789Z,100.00
2022-11-19T15:19:27.036Z,100.00
2022-11-19T15:22:19.797Z,100.00
2022-11-19T15:25:22.731Z,100.00
2022-11-19T15:27:56.629Z,100.00
2022-11-19T15:30:37.955Z,100.00
2022-11-19T15:33:08.519Z,100.00
2022-11-19T15:36:06.103Z,100.00
2022-11-19T15:39:01.446Z,100.00
2022-11-19T15:41:31.545Z,100.00
2022-11-19T15:43:59.731Z,100.00
2022-11-19T15:46:38.986Z,100.00
2022-11-19T15:49:11.398Z,100.00
2022-11-19T15:52:05.332Z,100.00
2022-11-19T15:54:34.835Z,100.00
2022-11-19T15:57:06.315Z,100.00
2022-11-19T15:59:38.364Z,100.00
2022-11-19T16:02:15.679Z,100.00
2022-11-19T16:04:42.357Z,100.00
2022-11-19T16:07:10.195Z,100.00
2022-11-19T16:09:37.754Z,100.00
2022-11-19T16:12:22.809Z,100.00
2022-11-19T16:15:10.195Z,100.00
2022-11-19T16:17:46.711Z,100.00
2022-11-19T16:20:13.213Z,100.00
2022-11-19T16:23:00.942Z,100.00
2022-11-19T16:25:41.176Z,100.00
2022-11-19T16:28:12.710Z,100.00
2022-11-19T16:30:46.273Z,100.00
2022-11-19T16:33:22.515Z,100.00
2022-11-19T16:35:53.294Z,100.00
2022-11-19T16:38:26.200Z,100.00
2022-11-19T16:41:12.537Z,100.00
2022-11-19T16:43:43.739Z,100.00
2022-11-19T16:46:15.663Z,100.00
2022-11-19T16:48:42.603Z,100.00
2022-11-19T16:51:41.164Z,100.00
2022-11-19T16:54:10.635Z,100.00
2022-11-19T16:56:42.448Z,100.00
2022-11-19T16:59:17.624Z,100.00
2022-11-19T17:01:53.884Z,100.00
2022-11-19T17:04:21.638Z,100.00
2022-11-19T17:06:48.666Z,100.00
2022-11-19T17:09:35.923Z,100.00
2022-11-19T17:12:17.755Z,100.00
2022-11-19T17:14:48.694Z,100.00
2022-11-19T17:17:29.250Z,100.00
2022-11-19T17:19:57.527Z,100.00
2022-11-19T17:22:32.667Z,100.00
2022-11-19T17:25:01.953Z,100.00
2022-11-19T17:27:28.412Z,100.00
2022-11-19T17:30:10.729Z,100.00
2022-11-19T17:32:41.316Z,100.00
2022-11-19T17:35:29.482Z,100.00
2022-11-19T17:37:58.818Z,100.00
2022-11-19T17:40:25.426Z,100.00
2022-11-19T17:43:11.041Z,100.00
2022-11-19T17:45:37.511Z,100.00
2022-11-19T17:48:16.109Z,100.00
2022-11-19T17:50:42.531Z,100.00
2022-11-19T17:53:09.031Z,100.00
2022-11-19T17:55:35.919Z,100.00
2022-11-19T17:58:02.393Z,100.00
2022-11-19T18:00:29.016Z,100.00
2022-11-19T18:03:00.317Z,100.00
2022-11-19T18:05:33.723Z,100.00
2022-11-19T18:08:00.293Z,100.00
2022-11-19T18:10:26.857Z,100.00
2022-11-19T18:12:53.404Z,100.00
2022-11-19T18:15:20.623Z,100.00
2022-11-19T18:17:47.244Z,100.00
2022-11-19T18:20:14.025Z,100.00
2022-11-19T18:22:41.188Z,100.00
2022-11-19T18:25:14.733Z,100.00
2022-11-19T18:27:41.270Z,100.00
2022-11-19T18:30:08.363Z,100.00
2022-11-19T18:32:35.687Z,100.00
2022-11-19T18:35:02.301Z,100.00
2022-11-19T18:37:29.454Z,100.00
2022-11-19T18:39:56.107Z,100.00
2022-11-19T18:42:28.636Z,100.00
2022-11-19T18:44:55.106Z,100.00
2022-11-19T18:47:23.380Z,100.00
2022-11-19T18:49:50.097Z,100.00
2022-11-19T18:52:16.638Z,100.00
2022-11-19T18:54:43.583Z,100.00
2022-11-19T18:57:12.097Z,100.00
2022-11-19T18:59:39.232Z,100.00
2022-11-19T19:02:06.460Z,100.00
2022-11-19T19:04:32.948Z,100.00
2022-11-19T19:06:59.465Z,100.00
2022-11-19T19:09:26.447Z,100.00
2022-11-19T19:12:16.553Z,100.00
2022-11-19T19:14:44.658Z,100.00
2022-11-19T19:17:11.913Z,100.00
2022-11-19T19:19:38.962Z,100.00
2022-11-19T19:22:06.076Z,100.00
2022-11-19T19:24:32.956Z,100.00
2022-11-19T19:27:00.255Z,100.00
2022-11-19T19:29:27.004Z,100.00
2022-11-19T19:31:53.793Z,100.00
2022-11-19T19:34:20.589Z,100.00
2022-11-19T19:36:52.705Z,100.00
2022-11-19T19:39:19.878Z,100.00
2022-11-19T19:41:46.725Z,100.00
2022-11-19T19:44:13.243Z,100.00
2022-11-19T19:46:39.713Z,100.00
2022-11-19T19:49:06.212Z,100.00
2022-11-19T19:51:32.914Z,100.00
2022-11-19T19:54:00.280Z,100.00
2022-11-19T19:56:31.985Z,100.00
2022-11-19T19:58:59.424Z,100.00
2022-11-19T20:01:28.584Z,100.00
2022-11-19T20:04:08.861Z,100.00
2022-11-19T20:06:38.090Z,100.00
2022-11-19T20:09:08.973Z,100.00
2022-11-19T20:11:36.656Z,100.00
2022-11-19T20:14:04.178Z,100.00
2022-11-19T20:16:32.150Z,100.00
2022-11-19T20:18:59.979Z,100.00
2022-11-19T20:21:29.211Z,100.00
2022-11-19T20:23:55.822Z,100.00
2022-11-19T20:26:24.734Z,100.00
2022-11-19T20:28:59.623Z,100.00
2022-11-19T20:31:26.593Z,100.00
2022-11-19T20:33:59.254Z,100.00
2022-11-19T20:36:28.269Z,100.00
2022-11-19T20:38:57.382Z,100.00
2022-11-19T20:41:42.543Z,100.00
2022-11-19T20:44:20.592Z,100.00
2022-11-19T20:47:00.309Z,100.00
2022-11-19T20:49:29.272Z,100.00
2022-11-19T20:51:56.504Z,100.00
2022-11-19T20:54:24.499Z,100.00
2022-11-19T20:56:52.367Z,100.00
2022-11-19T20:59:19.819Z,100.00
2022-11-19T21:01:49.418Z,100.00
2022-11-19T21:04:16.319Z,100.00
2022-11-19T21:06:42.828Z,100.00
2022-11-19T21:09:09.444Z,100.00
2022-11-19T21:11:36.049Z,100.00
2022-11-19T21:14:03.564Z,100.00
2022-11-19T21:16:30.651Z,100.00
2022-11-19T21:18:57.179Z,100.00
2022-11-19T21:21:24.553Z,100.00
2022-11-19T21:23:52.191Z,100.00
2022-11-19T21:26:21.328Z,100.00
2022-11-19T21:28:52.349Z,100.00
2022-11-19T21:31:21.959Z,100.00
2022-11-19T21:33:48.750Z,100.00
2022-11-19T21:36:15.269Z,100.00
2022-11-19T21:38:41.795Z,100.00
2022-11-19T21:41:08.265Z,100.00
2022-11-19T21:43:35.336Z,100.00
2022-11-19T21:46:01.913Z,100.00
2022-11-19T21:48:28.507Z,100.00
2022-11-19T21:50:55.005Z,100.00
2022-11-19T21:53:21.528Z,100.00
2022-11-19T21:55:49.185Z,100.00
2022-11-19T21:58:16.553Z,100.00
2022-11-19T22:00:44.220Z,100.00
2022-11-19T22:03:10.933Z,100.00
2022-11-19T22:05:37.536Z,100.00
2022-11-19T22:08:04.374Z,100.00
2022-11-19T22:10:31.013Z,100.00
2022-11-19T22:12:58.650Z,100.00
2022-11-19T22:15:26.674Z,100.00
2022-11-19T22:17:53.165Z,100.00
2022-11-19T22:20:19.719Z,100.00
2022-11-19T22:22:46.548Z,100.00
2022-11-19T22:25:13.506Z,100.00
2022-11-19T22:27:41.670Z,100.00
2022-11-19T22:30:10.157Z,100.00
2022-11-19T22:32:37.162Z,100.00
2022-11-19T22:35:04.717Z,100.00
2022-11-19T22:37:31.302Z,100.00
2022-11-19T22:39:57.872Z,100.00
2022-11-19T22:42:24.661Z,100.00
2022-11-19T22:44:51.691Z,100.00
2022-11-19T22:47:18.183Z,100.00
2022-11-19T22:49:44.712Z,100.00
2022-11-19T22:52:11.192Z,100.00
2022-11-19T22:54:41.624Z,100.00
2022-11-19T22:57:08.694Z,100.00
2022-11-19T22:59:35.765Z,100.00
2022-11-19T23:02:02.664Z,100.00
2022-11-19T23:04:29.427Z,100.00
2022-11-19T23:06:56.118Z,100.00
2022-11-19T23:09:23.239Z,100.00
2022-11-19T23:12:08.605Z,100.00
2022-11-19T23:14:35.121Z,100.00
2022-11-19T23:17:01.603Z,100.00
2022-11-19T23:19:28.114Z,100.00
2022-11-19T23:21:54.622Z,100.00
2022-11-19T23:24:21.232Z,100.00
2022-11-19T23:26:47.738Z,100.00
2022-11-19T23:29:14.364Z,100.00
2022-11-19T23:31:40.875Z,100.00
2022-11-19T23:34:07.919Z,100.00
2022-11-19T23:36:39.768Z,100.00
2022-11-19T23:39:10.122Z,100.00
2022-11-19T23:41:36.754Z,100.00
2022-11-19T23:44:03.303Z,100.00
2022-11-19T23:46:33.211Z,100.00
2022-11-19T23:49:00.737Z,100.00
2022-11-19T23:51:32.587Z,100.00
2022-11-19T23:53:59.522Z,100.00
2022-11-19T23:56:28.708Z,100.00
2022-11-19T23:58:55.579Z,100.00
